Time;durP1;ratioP1;P1;durP2;ratioP2;P2;SDS_P1;SDS_P2;PMS_P1;PMS_P2;Temp;Humidity;BMP_temperature;BMP_pressure;BME280_temperature;BME280_humidity;BME280_pressure;Samples;Min_cycle;Max_cycle;Signal;HPM_P1;HPM_P2
2022/08/01 00:01:35;;;;;;;6.20;3.53;;;;;;;;;;5044637;28;20068;-72
2022/08/01 00:04:02;;;;;;;6.75;4.10;;;;;;;;;;5042577;28;20091;-73
2022/08/01 00:06:28;;;;;;;10.80;4.63;;;;;;;;;;5050013;28;20045;-72
2022/08/01 00:08:54;;;;;;;7.15;4.45;;;;;;;;;;5042322;28;20098;-72
2022/08/01 00:11:20;;;;;;;11.02;5.32;;;;;;;;;;5052589;28;20468;-73
2022/08/01 00:13:46;;;;;;;9.25;5.40;;;;;;;;;;5046551;28;20086;-73
2022/08/01 00:16:12;;;;;;;7.13;3.85;;;;;;;;;;5041750;28;20076;-73
2022/08/01 00:18:38;;;;;;;5.95;4.07;;;;;;;;;;5039439;28;20069;-73
2022/08/01 00:21:05;;;;;;;5.72;4.00;;;;;;;;;;5037961;28;20081;-73
2022/08/01 00:23:31;;;;;;;5.03;3.80;;;;;;;;;;5045455;28;20057;-73
2022/08/01 00:25:57;;;;;;;6.55;4.40;;;;;;;;;;5043982;28;20083;-73
2022/08/01 00:28:23;;;;;;;7.85;4.47;;;;;;;;;;5053699;28;20496;-73
2022/08/01 00:30:49;;;;;;;6.03;4.10;;;;;;;;;;5040200;28;20147;-72
2022/08/01 00:33:15;;;;;;;7.40;4.43;;;;;;;;;;5044568;28;20053;-72
2022/08/01 00:35:41;;;;;;;8.55;4.40;;;;;;;;;;5043962;28;20154;-72
2022/08/01 00:38:07;;;;;;;5.63;4.53;;;;;;;;;;5041953;28;20849;-73
2022/08/01 00:40:33;;;;;;;7.85;3.88;;;;;;;;;;5041456;28;20034;-73
2022/08/01 00:42:59;;;;;;;7.70;4.00;;;;;;;;;;5044929;28;20055;-72
2022/08/01 00:45:25;;;;;;;6.40;3.95;;;;;;;;;;5053120;28;20049;-72
2022/08/01 00:47:51;;;;;;;4.82;3.10;;;;;;;;;;5053608;28;20049;-73
2022/08/01 00:50:18;;;;;;;4.65;2.90;;;;;;;;;;5046526;28;20056;-72
2022/08/01 00:52:44;;;;;;;3.90;2.85;;;;;;;;;;5056533;28;20047;-72
2022/08/01 00:55:10;;;;;;;3.63;2.70;;;;;;;;;;5052991;28;20043;-72
2022/08/01 00:57:36;;;;;;;3.90;2.80;;;;;;;;;;5048052;28;20137;-73
2022/08/01 01:00:03;;;;;;;4.20;2.50;;;;;;;;;;5046050;28;20127;-72
2022/08/01 01:02:29;;;;;;;6.05;2.75;;;;;;;;;;5054306;28;20098;-73
2022/08/01 01:04:55;;;;;;;6.82;2.80;;;;;;;;;;5046483;28;20044;-73
2022/08/01 01:07:42;;;;;;;5.03;2.60;;;;;;;;;;5060657;28;20488;-72
2022/08/01 01:10:18;;;;;;;6.63;3.05;;;;;;;;;;5051992;28;20389;-72
2022/08/01 01:12:47;;;;;;;5.68;3.30;;;;;;;;;;5061842;28;20040;-73
2022/08/01 01:15:17;;;;;;;9.18;3.88;;;;;;;;;;5049581;28;20052;-72
2022/08/01 01:17:48;;;;;;;8.40;3.63;;;;;;;;;;5049672;28;20139;-72
2022/08/01 01:20:15;;;;;;;8.52;3.60;;;;;;;;;;5051833;28;20091;-73
2022/08/01 01:22:51;;;;;;;8.60;3.53;;;;;;;;;;5051836;28;20056;-72
2022/08/01 01:25:36;;;;;;;11.10;4.05;;;;;;;;;;5057584;28;20056;-73
2022/08/01 01:28:21;;;;;;;12.40;4.00;;;;;;;;;;5057434;28;20451;-73
2022/08/01 01:30:49;;;;;;;9.63;3.85;;;;;;;;;;5051136;28;20048;-73
2022/08/01 01:33:17;;;;;;;13.30;5.10;;;;;;;;;;5066601;28;20101;-73
2022/08/01 01:35:45;;;;;;;9.05;3.53;;;;;;;;;;5050581;28;20491;-73
2022/08/01 01:38:15;;;;;;;13.68;4.13;;;;;;;;;;5051478;28;20045;-73
2022/08/01 01:40:42;;;;;;;12.02;4.15;;;;;;;;;;5053395;28;20080;-73
2022/08/01 01:43:10;;;;;;;9.07;3.80;;;;;;;;;;5054773;28;20049;-72
2022/08/01 01:45:36;;;;;;;11.43;4.18;;;;;;;;;;5061825;28;20068;-72
2022/08/01 01:48:03;;;;;;;12.52;4.00;;;;;;;;;;5049358;28;20052;-73
2022/08/01 01:50:29;;;;;;;6.90;3.50;;;;;;;;;;5064364;28;20451;-72
2022/08/01 01:52:55;;;;;;;8.25;3.58;;;;;;;;;;5059027;28;20504;-73
2022/08/01 01:55:23;;;;;;;9.57;3.65;;;;;;;;;;5048424;28;20063;-73
2022/08/01 01:57:50;;;;;;;11.27;3.70;;;;;;;;;;5050210;28;20038;-73
2022/08/01 02:00:17;;;;;;;6.15;3.10;;;;;;;;;;5052775;28;20407;-73
2022/08/01 02:02:43;;;;;;;8.60;3.30;;;;;;;;;;5053579;28;20040;-73
2022/08/01 02:05:10;;;;;;;10.82;3.80;;;;;;;;;;5052355;28;20408;-73
2022/08/01 02:07:37;;;;;;;13.25;4.10;;;;;;;;;;5080064;28;20479;-72
2022/08/01 02:10:04;;;;;;;11.60;4.10;;;;;;;;;;5058238;28;20044;-72
2022/08/01 02:12:31;;;;;;;10.70;4.38;;;;;;;;;;5052963;28;20488;-73
2022/08/01 02:14:58;;;;;;;12.63;4.18;;;;;;;;;;5082464;28;20040;-73
2022/08/01 02:17:24;;;;;;;10.10;3.72;;;;;;;;;;5049039;28;20041;-73
2022/08/01 02:19:50;;;;;;;9.40;3.58;;;;;;;;;;5057731;28;20040;-73
2022/08/01 02:22:27;;;;;;;10.05;3.65;;;;;;;;;;5049486;28;20058;-73
2022/08/01 02:25:06;;;;;;;8.45;3.30;;;;;;;;;;5046120;28;20045;-73
2022/08/01 02:27:40;;;;;;;7.10;3.58;;;;;;;;;;5048967;28;20048;-72
2022/08/01 02:30:08;;;;;;;5.82;3.10;;;;;;;;;;5058089;28;20052;-73
2022/08/01 02:32:34;;;;;;;6.35;3.42;;;;;;;;;;5054104;28;20048;-73
2022/08/01 02:35:02;;;;;;;4.88;3.28;;;;;;;;;;5051492;28;20045;-73
2022/08/01 02:37:32;;;;;;;7.00;3.00;;;;;;;;;;5054193;28;20045;-74
2022/08/01 02:39:58;;;;;;;7.45;3.40;;;;;;;;;;5059386;28;20072;-73
2022/08/01 02:42:25;;;;;;;11.05;3.30;;;;;;;;;;5048651;28;20404;-72
2022/08/01 02:44:52;;;;;;;7.70;3.58;;;;;;;;;;5049963;28;20094;-73
2022/08/01 02:47:20;;;;;;;12.85;3.80;;;;;;;;;;5045474;28;20504;-73
2022/08/01 02:49:48;;;;;;;11.43;4.00;;;;;;;;;;5061094;28;20048;-73
2022/08/01 02:52:16;;;;;;;12.02;4.30;;;;;;;;;;5047481;28;20041;-73
2022/08/01 02:54:45;;;;;;;10.35;4.03;;;;;;;;;;5059421;28;20044;-73
2022/08/01 02:57:12;;;;;;;13.52;4.07;;;;;;;;;;5046677;28;20068;-73
2022/08/01 02:59:39;;;;;;;11.07;3.83;;;;;;;;;;5054957;28;20044;-73
2022/08/01 03:02:06;;;;;;;14.20;3.85;;;;;;;;;;5049372;28;21025;-73
2022/08/01 03:04:34;;;;;;;12.80;3.67;;;;;;;;;;5059479;28;20127;-73
2022/08/01 03:07:01;;;;;;;11.90;3.58;;;;;;;;;;5044965;28;20048;-73
2022/08/01 03:09:28;;;;;;;13.13;3.40;;;;;;;;;;5048219;28;20041;-73
2022/08/01 03:11:56;;;;;;;9.77;3.50;;;;;;;;;;5060881;28;20040;-73
2022/08/01 03:14:24;;;;;;;11.88;3.50;;;;;;;;;;5049416;28;20119;-73
2022/08/01 03:16:51;;;;;;;10.07;3.08;;;;;;;;;;5057334;28;20443;-73
2022/08/01 03:19:18;;;;;;;13.30;3.58;;;;;;;;;;5045547;28;20040;-73
2022/08/01 03:21:44;;;;;;;11.98;3.33;;;;;;;;;;5059937;28;20049;-73
2022/08/01 03:24:12;;;;;;;12.68;3.78;;;;;;;;;;5050549;28;20298;-73
2022/08/01 03:26:39;;;;;;;11.45;3.67;;;;;;;;;;5052495;28;20052;-73
2022/08/01 03:29:13;;;;;;;12.32;3.95;;;;;;;;;;5051243;28;20082;-73
2022/08/01 03:31:42;;;;;;;11.50;3.25;;;;;;;;;;5053895;28;20048;-73
2022/08/01 03:34:08;;;;;;;11.23;3.65;;;;;;;;;;5049218;28;20102;-73
2022/08/01 03:36:38;;;;;;;13.00;3.53;;;;;;;;;;5045996;28;20132;-72
2022/08/01 03:39:06;;;;;;;11.23;3.47;;;;;;;;;;5058896;28;20369;-73
2022/08/01 03:41:34;;;;;;;10.52;3.40;;;;;;;;;;5053877;28;20098;-73
2022/08/01 03:44:08;;;;;;;11.45;3.33;;;;;;;;;;5055315;28;20025;-72
2022/08/01 03:46:41;;;;;;;8.52;3.38;;;;;;;;;;5060903;28;20049;-73
2022/08/01 03:49:11;;;;;;;9.18;3.22;;;;;;;;;;5040628;28;20048;-73
2022/08/01 03:51:37;;;;;;;9.80;3.55;;;;;;;;;;5053624;28;20047;-73
2022/08/01 03:54:04;;;;;;;11.38;3.33;;;;;;;;;;5081555;28;20053;-73
2022/08/01 03:56:31;;;;;;;11.63;3.75;;;;;;;;;;5050149;28;20488;-73
2022/08/01 03:58:58;;;;;;;10.07;3.80;;;;;;;;;;5048373;28;20048;-72
2022/08/01 04:01:24;;;;;;;8.27;2.92;;;;;;;;;;5049572;28;20045;-73
2022/08/01 04:03:50;;;;;;;10.60;3.47;;;;;;;;;;5045695;28;20080;-73
2022/08/01 04:06:17;;;;;;;10.23;3.40;;;;;;;;;;5041249;28;20049;-73
2022/08/01 04:08:54;;;;;;;13.52;3.58;;;;;;;;;;5061821;28;20079;-73
2022/08/01 04:11:21;;;;;;;11.88;3.63;;;;;;;;;;5055491;28;20089;-73
2022/08/01 04:13:48;;;;;;;8.85;3.40;;;;;;;;;;5049127;28;20060;-72
2022/08/01 04:16:14;;;;;;;11.52;3.35;;;;;;;;;;5042696;28;20045;-73
2022/08/01 04:18:40;;;;;;;12.35;3.78;;;;;;;;;;5040599;28;20044;-73
2022/08/01 04:21:06;;;;;;;12.00;3.42;;;;;;;;;;5044717;28;20053;-73
2022/08/01 04:23:35;;;;;;;10.38;3.45;;;;;;;;;;5047353;28;20060;-73
2022/08/01 04:26:06;;;;;;;10.70;3.72;;;;;;;;;;5046479;28;20065;-73
2022/08/01 04:28:36;;;;;;;9.68;3.40;;;;;;;;;;5056795;28;20052;-73
2022/08/01 04:31:03;;;;;;;14.60;3.53;;;;;;;;;;5056935;28;20074;-73
2022/08/01 04:33:30;;;;;;;9.80;3.03;;;;;;;;;;5062444;28;20041;-73
2022/08/01 04:35:58;;;;;;;13.43;3.83;;;;;;;;;;5074805;28;20045;-73
2022/08/01 04:38:27;;;;;;;10.23;3.45;;;;;;;;;;5058864;28;20056;-73
2022/08/01 04:40:53;;;;;;;14.48;3.40;;;;;;;;;;5059361;28;20488;-73
2022/08/01 04:43:19;;;;;;;9.35;3.40;;;;;;;;;;5081052;28;20053;-73
2022/08/01 04:45:46;;;;;;;9.40;3.60;;;;;;;;;;5057302;28;20083;-73
2022/08/01 04:48:13;;;;;;;11.45;3.83;;;;;;;;;;5052805;28;20066;-73
2022/08/01 04:50:41;;;;;;;7.18;3.08;;;;;;;;;;5061347;28;20090;-73
2022/08/01 04:53:13;;;;;;;12.95;4.07;;;;;;;;;;5057391;28;20048;-72
2022/08/01 04:55:38;;;;;;;9.30;3.20;;;;;;;;;;5051735;28;20512;-73
2022/08/01 04:58:05;;;;;;;12.95;3.08;;;;;;;;;;5044200;28;20033;-73
2022/08/01 05:00:31;;;;;;;12.27;3.55;;;;;;;;;;5053034;28;20048;-73
2022/08/01 05:02:57;;;;;;;10.40;3.28;;;;;;;;;;5064634;28;20519;-73
2022/08/01 05:05:26;;;;;;;11.48;3.10;;;;;;;;;;5057115;28;20053;-73
2022/08/01 05:07:52;;;;;;;11.93;3.45;;;;;;;;;;5047430;28;20080;-73
2022/08/01 05:10:17;;;;;;;11.57;3.30;;;;;;;;;;5056649;28;20754;-73
2022/08/01 05:12:46;;;;;;;11.95;3.22;;;;;;;;;;5054437;28;20055;-73
2022/08/01 05:15:12;;;;;;;11.50;3.60;;;;;;;;;;5052011;28;20509;-73
2022/08/01 05:17:38;;;;;;;11.38;3.58;;;;;;;;;;5058384;28;20040;-73
2022/08/01 05:20:06;;;;;;;11.00;3.30;;;;;;;;;;5056523;28;20057;-73
2022/08/01 05:22:32;;;;;;;8.73;3.00;;;;;;;;;;5055206;28;20044;-73
2022/08/01 05:24:59;;;;;;;12.75;3.45;;;;;;;;;;5054204;28;20102;-73
2022/08/01 05:27:25;;;;;;;8.02;3.40;;;;;;;;;;5048985;28;20563;-73
2022/08/01 05:29:51;;;;;;;9.88;3.65;;;;;;;;;;5057181;28;20040;-73
2022/08/01 05:32:17;;;;;;;11.60;3.25;;;;;;;;;;5050085;28;20044;-73
2022/08/01 05:34:43;;;;;;;10.77;3.40;;;;;;;;;;5060576;28;20039;-73
2022/08/01 05:37:09;;;;;;;10.30;3.70;;;;;;;;;;5056280;28;20095;-73
2022/08/01 05:39:36;;;;;;;9.93;3.40;;;;;;;;;;5043347;28;20056;-73
2022/08/01 05:42:02;;;;;;;13.75;3.38;;;;;;;;;;5055654;28;20045;-73
2022/08/01 05:44:28;;;;;;;14.32;3.40;;;;;;;;;;5053659;28;20049;-72
2022/08/01 05:46:54;;;;;;;10.60;3.70;;;;;;;;;;5043407;28;20044;-72
2022/08/01 05:49:20;;;;;;;9.00;3.85;;;;;;;;;;5045590;28;20049;-73
2022/08/01 05:51:46;;;;;;;10.30;3.35;;;;;;;;;;5047819;28;20595;-73
2022/08/01 05:54:12;;;;;;;10.75;3.20;;;;;;;;;;5054505;28;20048;-73
2022/08/01 05:56:38;;;;;;;11.82;3.90;;;;;;;;;;5051673;28;20041;-73
2022/08/01 05:59:04;;;;;;;11.02;3.25;;;;;;;;;;5049156;28;20045;-73
2022/08/01 06:01:30;;;;;;;10.68;3.15;;;;;;;;;;5044276;28;20056;-73
2022/08/01 06:03:56;;;;;;;11.10;3.08;;;;;;;;;;5053467;28;20048;-73
2022/08/01 06:06:22;;;;;;;11.10;3.17;;;;;;;;;;5049539;28;20102;-73
2022/08/01 06:08:48;;;;;;;10.05;3.33;;;;;;;;;;5048962;28;20048;-73
2022/08/01 06:11:14;;;;;;;7.57;3.08;;;;;;;;;;5040685;28;20040;-73
2022/08/01 06:13:40;;;;;;;10.18;2.90;;;;;;;;;;5049617;28;20040;-73
2022/08/01 06:16:06;;;;;;;11.25;3.10;;;;;;;;;;5047921;28;20151;-74
2022/08/01 06:18:32;;;;;;;7.28;2.72;;;;;;;;;;5062319;28;20040;-73
2022/08/01 06:20:58;;;;;;;10.23;3.30;;;;;;;;;;5047970;28;20049;-74
2022/08/01 06:23:24;;;;;;;8.23;2.50;;;;;;;;;;5060982;28;20057;-73
2022/08/01 06:25:54;;;;;;;9.85;2.90;;;;;;;;;;5090282;28;20041;-73
2022/08/01 06:28:20;;;;;;;9.95;2.90;;;;;;;;;;5057765;28;20047;-74
2022/08/01 06:30:46;;;;;;;10.57;3.25;;;;;;;;;;5045132;28;20186;-72
2022/08/01 06:33:12;;;;;;;8.95;3.00;;;;;;;;;;5045451;28;20471;-73
2022/08/01 06:35:38;;;;;;;7.28;2.90;;;;;;;;;;5047922;28;20059;-74
2022/08/01 06:38:04;;;;;;;8.18;3.10;;;;;;;;;;5048678;28;20043;-74
2022/08/01 06:40:30;;;;;;;11.25;3.50;;;;;;;;;;5067568;28;20405;-73
2022/08/01 06:42:56;;;;;;;10.38;2.92;;;;;;;;;;5050472;28;20515;-74
2022/08/01 06:45:24;;;;;;;9.15;3.10;;;;;;;;;;5040112;28;20124;-74
2022/08/01 06:47:50;;;;;;;10.95;3.22;;;;;;;;;;5052530;28;20499;-74
2022/08/01 06:50:16;;;;;;;7.80;3.03;;;;;;;;;;5057348;28;20058;-74
2022/08/01 06:52:42;;;;;;;10.52;3.30;;;;;;;;;;5052008;28;20060;-74
2022/08/01 06:55:08;;;;;;;7.32;2.63;;;;;;;;;;5043187;28;20044;-74
2022/08/01 06:57:35;;;;;;;6.32;2.92;;;;;;;;;;5064407;28;20068;-74
2022/08/01 07:00:02;;;;;;;6.10;2.78;;;;;;;;;;5041376;28;20049;-74
2022/08/01 07:02:28;;;;;;;7.25;2.90;;;;;;;;;;5040156;28;20044;-75
2022/08/01 07:04:54;;;;;;;7.88;2.80;;;;;;;;;;5046395;28;21208;-74
2022/08/01 07:07:20;;;;;;;7.85;2.90;;;;;;;;;;5073704;28;20048;-75
2022/08/01 07:09:46;;;;;;;7.15;2.78;;;;;;;;;;5044818;28;20041;-74
2022/08/01 07:12:12;;;;;;;8.35;2.72;;;;;;;;;;5052625;28;20072;-74
2022/08/01 07:14:38;;;;;;;8.00;2.58;;;;;;;;;;5044960;28;20048;-74
2022/08/01 07:17:04;;;;;;;7.50;2.60;;;;;;;;;;5054539;28;20091;-75
2022/08/01 07:19:30;;;;;;;7.68;2.30;;;;;;;;;;5055606;28;20120;-75
2022/08/01 07:21:56;;;;;;;7.95;2.97;;;;;;;;;;5071215;28;20060;-75
2022/08/01 07:24:22;;;;;;;9.52;2.90;;;;;;;;;;5058522;28;20385;-75
2022/08/01 07:26:49;;;;;;;9.25;3.00;;;;;;;;;;5049582;28;20037;-74
2022/08/01 07:29:15;;;;;;;8.02;2.47;;;;;;;;;;5065553;28;20054;-74
2022/08/01 07:31:41;;;;;;;6.35;2.50;;;;;;;;;;5057884;28;20045;-72
2022/08/01 07:34:07;;;;;;;5.47;2.40;;;;;;;;;;5047347;28;20048;-74
2022/08/01 07:36:33;;;;;;;5.82;2.20;;;;;;;;;;5068297;28;20048;-75
2022/08/01 07:38:59;;;;;;;7.38;2.80;;;;;;;;;;5064859;28;20473;-75
2022/08/01 07:41:25;;;;;;;7.63;2.92;;;;;;;;;;5042735;28;20075;-74
2022/08/01 07:43:51;;;;;;;6.63;2.50;;;;;;;;;;5048698;28;20113;-75
2022/08/01 07:46:17;;;;;;;8.38;2.72;;;;;;;;;;5052044;28;20127;-75
2022/08/01 07:48:44;;;;;;;8.90;2.70;;;;;;;;;;5043425;28;20045;-75
2022/08/01 07:51:10;;;;;;;9.48;2.65;;;;;;;;;;5064445;28;20053;-75
2022/08/01 07:53:36;;;;;;;9.40;2.55;;;;;;;;;;5040507;28;20045;-75
2022/08/01 07:56:04;;;;;;;5.70;2.40;;;;;;;;;;5054743;28;20198;-75
2022/08/01 07:58:30;;;;;;;6.97;2.28;;;;;;;;;;5052581;28;20385;-75
2022/08/01 08:00:56;;;;;;;9.20;2.88;;;;;;;;;;5040788;28;20045;-74
2022/08/01 08:03:22;;;;;;;7.88;2.60;;;;;;;;;;5054501;28;20194;-74
2022/08/01 08:05:48;;;;;;;8.85;2.75;;;;;;;;;;5055968;28;20548;-74
2022/08/01 08:08:15;;;;;;;10.23;2.65;;;;;;;;;;5054943;28;20040;-74
2022/08/01 08:10:41;;;;;;;11.15;2.65;;;;;;;;;;5049108;28;20057;-74
2022/08/01 08:13:07;;;;;;;10.55;2.60;;;;;;;;;;5036424;28;20085;-74
2022/08/01 08:15:33;;;;;;;7.03;2.30;;;;;;;;;;5041399;28;20599;-73
2022/08/01 08:17:59;;;;;;;4.97;2.22;;;;;;;;;;5036244;28;20160;-73
2022/08/01 08:20:26;;;;;;;8.57;2.58;;;;;;;;;;5067546;28;20061;-74
2022/08/01 08:22:53;;;;;;;7.60;2.42;;;;;;;;;;5067311;28;20079;-74
2022/08/01 08:25:19;;;;;;;5.47;2.60;;;;;;;;;;5068255;28;20505;-74
2022/08/01 08:27:46;;;;;;;6.38;2.20;;;;;;;;;;5035968;28;20045;-74
2022/08/01 08:30:12;;;;;;;6.38;2.33;;;;;;;;;;5066827;28;20053;-74
2022/08/01 08:32:38;;;;;;;4.78;2.58;;;;;;;;;;5036255;28;20117;-74
2022/08/01 08:35:05;;;;;;;7.10;2.40;;;;;;;;;;5055867;28;20102;-74
2022/08/01 08:37:31;;;;;;;7.95;2.63;;;;;;;;;;5045664;28;20052;-74
2022/08/01 08:39:57;;;;;;;9.30;2.30;;;;;;;;;;5067847;28;20094;-74
2022/08/01 08:42:23;;;;;;;6.40;2.35;;;;;;;;;;5035448;28;20049;-74
2022/08/01 08:44:49;;;;;;;9.40;2.70;;;;;;;;;;5036784;28;20492;-74
2022/08/01 08:47:16;;;;;;;6.22;2.42;;;;;;;;;;5053984;28;20055;-73
2022/08/01 08:49:45;;;;;;;4.38;2.33;;;;;;;;;;5038475;28;20049;-74
2022/08/01 08:52:11;;;;;;;7.15;2.28;;;;;;;;;;5034447;28;20076;-74
2022/08/01 08:54:38;;;;;;;5.95;2.38;;;;;;;;;;5035363;28;20053;-74
2022/08/01 08:57:05;;;;;;;5.38;2.60;;;;;;;;;;5035530;28;20053;-74
2022/08/01 08:59:31;;;;;;;6.15;2.20;;;;;;;;;;5066260;28;20073;-74
2022/08/01 09:01:58;;;;;;;6.75;2.13;;;;;;;;;;5035584;28;20049;-74
2022/08/01 09:04:24;;;;;;;6.65;2.20;;;;;;;;;;5048188;28;20060;-74
2022/08/01 09:06:50;;;;;;;5.57;2.00;;;;;;;;;;5051998;28;20033;-74
2022/08/01 09:09:17;;;;;;;6.70;2.10;;;;;;;;;;5053411;28;20402;-74
2022/08/01 09:11:43;;;;;;;6.47;2.22;;;;;;;;;;5036880;28;20440;-73
2022/08/01 09:14:13;;;;;;;8.45;2.63;;;;;;;;;;5034711;28;20056;-74
2022/08/01 09:16:43;;;;;;;6.55;2.38;;;;;;;;;;5034919;28;20077;-74
2022/08/01 09:19:11;;;;;;;8.57;2.33;;;;;;;;;;5066083;28;20055;-74
2022/08/01 09:21:37;;;;;;;8.18;2.30;;;;;;;;;;5066737;28;20107;-73
2022/08/01 09:24:05;;;;;;;6.78;2.30;;;;;;;;;;5034857;28;20053;-74
2022/08/01 09:26:35;;;;;;;6.43;2.10;;;;;;;;;;5049797;28;20480;-74
2022/08/01 09:29:08;;;;;;;6.85;2.28;;;;;;;;;;5053435;28;20504;-74
2022/08/01 09:31:41;;;;;;;5.25;2.22;;;;;;;;;;5050092;28;20038;-74
2022/08/01 09:34:09;;;;;;;6.07;2.17;;;;;;;;;;5049317;28;20499;-74
2022/08/01 09:36:48;;;;;;;6.28;1.98;;;;;;;;;;5054363;28;20397;-74
2022/08/01 09:39:14;;;;;;;6.53;2.35;;;;;;;;;;5053251;28;20049;-74
2022/08/01 09:41:41;;;;;;;5.05;2.10;;;;;;;;;;5046053;28;20045;-74
2022/08/01 09:44:07;;;;;;;5.57;2.20;;;;;;;;;;5066961;28;20049;-74
2022/08/01 09:46:33;;;;;;;4.47;2.10;;;;;;;;;;5066341;28;20042;-74
2022/08/01 09:48:59;;;;;;;4.15;2.00;;;;;;;;;;5033830;28;20042;-75
2022/08/01 09:51:34;;;;;;;7.28;2.30;;;;;;;;;;5035966;28;20049;-74
2022/08/01 09:54:00;;;;;;;5.20;2.15;;;;;;;;;;5032226;28;20045;-73
2022/08/01 09:56:27;;;;;;;5.95;2.20;;;;;;;;;;5033278;28;20068;-74
2022/08/01 09:58:54;;;;;;;7.45;2.17;;;;;;;;;;5044218;28;20048;-74
2022/08/01 10:01:23;;;;;;;6.43;2.03;;;;;;;;;;5049236;28;20153;-74
2022/08/01 10:04:08;;;;;;;4.18;1.90;;;;;;;;;;5048017;28;20053;-74
2022/08/01 10:06:37;;;;;;;7.38;2.28;;;;;;;;;;5054267;28;20051;-74
2022/08/01 10:09:03;;;;;;;5.55;1.85;;;;;;;;;;5042127;28;20041;-74
2022/08/01 10:11:31;;;;;;;6.03;2.05;;;;;;;;;;5032744;28;20041;-74
2022/08/01 10:13:59;;;;;;;6.95;1.67;;;;;;;;;;5033443;28;20045;-74
2022/08/01 10:16:27;;;;;;;6.80;2.25;;;;;;;;;;5033073;28;20065;-74
2022/08/01 10:18:54;;;;;;;5.40;2.08;;;;;;;;;;5034150;28;20046;-74
2022/08/01 10:21:21;;;;;;;5.80;1.73;;;;;;;;;;5033356;28;20525;-74
2022/08/01 10:23:47;;;;;;;5.85;2.40;;;;;;;;;;5065138;28;20064;-74
2022/08/01 10:26:14;;;;;;;7.82;2.20;;;;;;;;;;5034036;28;20083;-74
2022/08/01 10:28:41;;;;;;;5.50;2.33;;;;;;;;;;5064989;28;20045;-74
2022/08/01 10:31:11;;;;;;;4.70;2.00;;;;;;;;;;5051655;28;20037;-74
2022/08/01 10:33:39;;;;;;;4.82;1.90;;;;;;;;;;5053512;28;20051;-74
2022/08/01 10:36:05;;;;;;;2.88;1.77;;;;;;;;;;5053760;28;20044;-74
2022/08/01 10:38:32;;;;;;;2.95;1.80;;;;;;;;;;5041963;28;20449;-74
2022/08/01 10:40:59;;;;;;;6.50;1.88;;;;;;;;;;5033416;28;20037;-74
2022/08/01 10:43:25;;;;;;;5.00;2.03;;;;;;;;;;5064579;28;20400;-74
2022/08/01 10:45:52;;;;;;;5.55;1.88;;;;;;;;;;5065377;28;20513;-74
2022/08/01 10:48:27;;;;;;;6.60;2.10;;;;;;;;;;5045312;28;20102;-74
2022/08/01 10:50:54;;;;;;;8.27;1.90;;;;;;;;;;5051422;28;20105;-74
2022/08/01 10:53:22;;;;;;;4.60;2.13;;;;;;;;;;5051798;28;20049;-74
2022/08/01 10:56:00;;;;;;;7.05;2.13;;;;;;;;;;5052164;28;20511;-74
2022/08/01 10:58:32;;;;;;;5.20;2.08;;;;;;;;;;5034180;28;20150;-74
2022/08/01 11:01:15;;;;;;;4.10;1.98;;;;;;;;;;5050131;28;20231;-74
2022/08/01 11:03:44;;;;;;;4.05;1.70;;;;;;;;;;5052215;28;20056;-74
2022/08/01 11:06:22;;;;;;;6.78;2.03;;;;;;;;;;5048901;28;20174;-74
2022/08/01 11:08:52;;;;;;;5.13;1.77;;;;;;;;;;5051382;28;20090;-75
2022/08/01 11:11:19;;;;;;;4.13;1.80;;;;;;;;;;5042968;28;20041;-74
2022/08/01 11:14:01;;;;;;;6.18;2.00;;;;;;;;;;5051317;28;20047;-74
2022/08/01 11:16:35;;;;;;;4.82;2.03;;;;;;;;;;5051798;28;20523;-74
2022/08/01 11:19:01;;;;;;;4.65;1.73;;;;;;;;;;5031234;28;20504;-74
2022/08/01 11:21:46;;;;;;;4.00;1.70;;;;;;;;;;5036002;28;20068;-74
2022/08/01 11:24:12;;;;;;;5.57;1.90;;;;;;;;;;5066829;28;20100;-75
2022/08/01 11:26:38;;;;;;;4.80;1.88;;;;;;;;;;5050617;28;20045;-74
2022/08/01 11:29:17;;;;;;;6.35;1.80;;;;;;;;;;5050875;28;20484;-74
2022/08/01 11:31:43;;;;;;;4.72;1.80;;;;;;;;;;5049900;28;20053;-75
2022/08/01 11:34:09;;;;;;;4.90;2.05;;;;;;;;;;5051908;28;20070;-75
2022/08/01 11:36:35;;;;;;;5.32;2.22;;;;;;;;;;5052821;28;20045;-75
2022/08/01 11:39:01;;;;;;;3.65;1.70;;;;;;;;;;5034700;28;20511;-74
2022/08/01 11:41:29;;;;;;;4.13;1.70;;;;;;;;;;5030349;28;20050;-75
2022/08/01 11:43:58;;;;;;;3.90;1.92;;;;;;;;;;5031737;28;20584;-75
2022/08/01 11:46:43;;;;;;;5.22;1.92;;;;;;;;;;5031047;28;20060;-75
2022/08/01 11:49:31;;;;;;;4.07;2.00;;;;;;;;;;5031441;28;20073;-75
2022/08/01 11:52:02;;;;;;;3.50;1.83;;;;;;;;;;5032230;28;20081;-75
2022/08/01 11:54:29;;;;;;;4.03;1.92;;;;;;;;;;5047993;28;20539;-74
2022/08/01 11:56:56;;;;;;;5.38;2.03;;;;;;;;;;5052667;28;20095;-74
2022/08/01 11:59:22;;;;;;;4.47;1.80;;;;;;;;;;5040751;28;20049;-74
2022/08/01 12:01:48;;;;;;;5.25;1.90;;;;;;;;;;5063262;28;20055;-74
2022/08/01 12:04:14;;;;;;;3.25;1.60;;;;;;;;;;5041154;28;20136;-75
2022/08/01 12:06:40;;;;;;;4.40;2.20;;;;;;;;;;5050843;28;20044;-75
2022/08/01 12:09:16;;;;;;;3.13;1.67;;;;;;;;;;5051366;28;20048;-75
2022/08/01 12:11:42;;;;;;;2.70;1.60;;;;;;;;;;5036957;28;20061;-75
2022/08/01 12:14:08;;;;;;;5.30;1.88;;;;;;;;;;5030948;28;20042;-75
2022/08/01 12:16:34;;;;;;;5.47;2.00;;;;;;;;;;5031444;28;20041;-75
2022/08/01 12:19:00;;;;;;;6.22;1.88;;;;;;;;;;5064599;28;20033;-75
2022/08/01 12:21:26;;;;;;;4.97;1.67;;;;;;;;;;5082780;28;20535;-75
2022/08/01 12:24:02;;;;;;;4.72;1.90;;;;;;;;;;5049928;28;20053;-75
2022/08/01 12:26:49;;;;;;;4.60;2.25;;;;;;;;;;5034808;28;20047;-75
2022/08/01 12:29:34;;;;;;;5.90;1.60;;;;;;;;;;5063085;28;20136;-75
2022/08/01 12:32:00;;;;;;;4.78;1.73;;;;;;;;;;5063999;28;20088;-75
2022/08/01 12:34:29;;;;;;;5.47;1.80;;;;;;;;;;5064185;28;20570;-75
2022/08/01 12:36:57;;;;;;;3.25;1.90;;;;;;;;;;5063581;28;20463;-75
2022/08/01 12:39:29;;;;;;;5.72;1.70;;;;;;;;;;5063929;28;20077;-75
2022/08/01 12:41:55;;;;;;;3.87;1.83;;;;;;;;;;5066585;28;20049;-75
2022/08/01 12:44:21;;;;;;;5.30;1.60;;;;;;;;;;5039635;28;20203;-75
2022/08/01 12:46:47;;;;;;;4.50;1.70;;;;;;;;;;5054181;28;20523;-75
2022/08/01 12:49:13;;;;;;;4.07;1.88;;;;;;;;;;5054211;28;20045;-75
2022/08/01 12:51:39;;;;;;;6.03;1.67;;;;;;;;;;5049284;28;20044;-75
2022/08/01 12:54:09;;;;;;;3.65;1.90;;;;;;;;;;5067783;28;20053;-75
2022/08/01 12:56:36;;;;;;;3.15;1.98;;;;;;;;;;5067054;28;20103;-75
2022/08/01 12:59:02;;;;;;;5.68;1.98;;;;;;;;;;5034505;28;20489;-75
2022/08/01 13:01:31;;;;;;;4.25;1.95;;;;;;;;;;5035239;28;20472;-75
2022/08/01 13:04:03;;;;;;;4.93;1.80;;;;;;;;;;5034863;28;20131;-76
2022/08/01 13:06:30;;;;;;;5.00;1.63;;;;;;;;;;5033990;28;20045;-76
2022/08/01 13:09:04;;;;;;;3.50;1.65;;;;;;;;;;5067122;28;20096;-75
2022/08/01 13:11:31;;;;;;;3.35;1.80;;;;;;;;;;5066808;28;20493;-75
2022/08/01 13:13:57;;;;;;;2.88;1.65;;;;;;;;;;5067153;28;20051;-75
2022/08/01 13:16:24;;;;;;;3.65;1.65;;;;;;;;;;5067150;28;20148;-75
2022/08/01 13:18:51;;;;;;;4.53;1.75;;;;;;;;;;5066461;28;20061;-75
2022/08/01 13:21:17;;;;;;;5.45;1.70;;;;;;;;;;5083485;28;20136;-76
2022/08/01 13:24:03;;;;;;;4.57;1.60;;;;;;;;;;5054259;28;20548;-76
2022/08/01 13:26:47;;;;;;;5.03;1.65;;;;;;;;;;5066244;28;20045;-76
2022/08/01 13:29:18;;;;;;;5.15;1.70;;;;;;;;;;5041782;28;20091;-76
2022/08/01 13:31:44;;;;;;;5.43;1.90;;;;;;;;;;5053534;28;20543;-75
2022/08/01 13:34:10;;;;;;;3.13;1.67;;;;;;;;;;5052583;28;20080;-75
2022/08/01 13:36:37;;;;;;;5.60;1.80;;;;;;;;;;5053334;28;20056;-76
2022/08/01 13:41:48;;;;;;;6.05;1.80;;;;;;;;;;5034747;28;20045;-76
2022/08/01 13:44:14;;;;;;;4.18;1.60;;;;;;;;;;5066369;28;20061;-75
2022/08/01 13:46:41;;;;;;;4.40;1.63;;;;;;;;;;5065292;28;20041;-75
2022/08/01 13:49:08;;;;;;;6.65;1.83;;;;;;;;;;5066573;28;20088;-75
2022/08/01 13:51:34;;;;;;;4.85;1.67;;;;;;;;;;5084052;28;20052;-75
2022/08/01 13:54:00;;;;;;;2.97;1.50;;;;;;;;;;5038950;28;20516;-75
2022/08/01 13:56:29;;;;;;;9.05;2.05;;;;;;;;;;5066408;28;20535;-75
2022/08/01 13:58:56;;;;;;;3.25;1.60;;;;;;;;;;5066221;28;20053;-75
2022/08/01 14:01:23;;;;;;;4.82;1.67;;;;;;;;;;5065345;28;20607;-75
2022/08/01 14:03:50;;;;;;;3.60;1.83;;;;;;;;;;5037921;28;20041;-75
2022/08/01 14:06:17;;;;;;;4.53;1.90;;;;;;;;;;5034293;28;20048;-75
2022/08/01 14:08:43;;;;;;;2.08;1.60;;;;;;;;;;5031858;28;20049;-75
2022/08/01 14:11:09;;;;;;;3.63;1.92;;;;;;;;;;5039717;28;20052;-75
2022/08/01 14:13:38;;;;;;;2.75;1.70;;;;;;;;;;5052173;28;20496;-75
2022/08/01 14:16:04;;;;;;;3.03;1.70;;;;;;;;;;5037922;28;20479;-75
2022/08/01 14:18:30;;;;;;;3.90;2.10;;;;;;;;;;5033968;28;20041;-75
2022/08/01 14:20:56;;;;;;;5.55;2.00;;;;;;;;;;5033658;28;20096;-76
2022/08/01 14:23:22;;;;;;;2.50;1.60;;;;;;;;;;5064923;28;20052;-75
2022/08/01 14:25:48;;;;;;;4.30;1.67;;;;;;;;;;5080413;28;20052;-75
2022/08/01 14:28:14;;;;;;;4.15;1.67;;;;;;;;;;5051789;28;20056;-75
2022/08/01 14:30:43;;;;;;;3.92;1.98;;;;;;;;;;5052352;28;20128;-75
2022/08/01 14:33:10;;;;;;;4.75;1.85;;;;;;;;;;5048758;28;20037;-75
2022/08/01 14:35:36;;;;;;;3.75;1.65;;;;;;;;;;5031673;28;20487;-75
2022/08/01 14:38:02;;;;;;;3.35;1.70;;;;;;;;;;5032044;28;20136;-76
2022/08/01 14:40:28;;;;;;;5.18;1.80;;;;;;;;;;5031933;28;20076;-76
2022/08/01 14:42:54;;;;;;;3.10;1.80;;;;;;;;;;5049668;28;20045;-76
2022/08/01 14:45:20;;;;;;;4.45;1.73;;;;;;;;;;5053487;28;20041;-76
2022/08/01 14:47:46;;;;;;;5.00;1.75;;;;;;;;;;5053006;28;20115;-76